sensor_id;sensor_type;location;lat;lon;timestamp;temperature;humidity
39815;DHT22;25495;45.948;4.568;2023-02-10T00:01:46;0.80;99.90
39815;DHT22;25495;45.948;4.568;2023-02-10T00:04:12;0.80;99.90
39815;DHT22;25495;45.948;4.568;2023-02-10T00:06:37;0.80;99.90
39815;DHT22;25495;45.948;4.568;2023-02-10T00:09:04;0.80;99.90
39815;DHT22;25495;45.948;4.568;2023-02-10T00:11:29;0.80;99.90
39815;DHT22;25495;45.948;4.568;2023-02-10T00:14:14;0.80;99.90
39815;DHT22;25495;45.948;4.568;2023-02-10T00:16:40;0.80;99.90
39815;DHT22;25495;45.948;4.568;2023-02-10T00:19:05;0.70;99.90
39815;DHT22;25495;45.948;4.568;2023-02-10T00:21:31;0.60;99.90
39815;DHT22;25495;45.948;4.568;2023-02-10T00:23:56;0.50;99.90
39815;DHT22;25495;45.948;4.568;2023-02-10T00:26:22;0.60;99.90
39815;DHT22;25495;45.948;4.568;2023-02-10T00:28:48;0.50;99.90
39815;DHT22;25495;45.948;4.568;2023-02-10T00:31:14;0.40;99.90
39815;DHT22;25495;45.948;4.568;2023-02-10T00:33:40;0.30;99.90
39815;DHT22;25495;45.948;4.568;2023-02-10T00:36:06;0.30;99.90
39815;DHT22;25495;45.948;4.568;2023-02-10T00:38:32;0.40;99.90
39815;DHT22;25495;45.948;4.568;2023-02-10T00:41:02;0.10;99.90
39815;DHT22;25495;45.948;4.568;2023-02-10T00:43:27;0.10;99.90
39815;DHT22;25495;45.948;4.568;2023-02-10T00:45:53;0.00;99.90
39815;DHT22;25495;45.948;4.568;2023-02-10T00:48:18;0.10;99.90
39815;DHT22;25495;45.948;4.568;2023-02-10T00:50:44;0.10;99.90
39815;DHT22;25495;45.948;4.568;2023-02-10T00:53:10;0.20;99.90
39815;DHT22;25495;45.948;4.568;2023-02-10T00:55:35;0.10;99.90
39815;DHT22;25495;45.948;4.568;2023-02-10T00:58:01;0.20;99.90
39815;DHT22;25495;45.948;4.568;2023-02-10T01:00:26;0.20;99.90
39815;DHT22;25495;45.948;4.568;2023-02-10T01:02:52;0.30;99.90
39815;DHT22;25495;45.948;4.568;2023-02-10T01:05:17;0.10;99.90
39815;DHT22;25495;45.948;4.568;2023-02-10T01:07:43;0.10;99.90
39815;DHT22;25495;45.948;4.568;2023-02-10T01:10:09;0.20;99.90
39815;DHT22;25495;45.948;4.568;2023-02-10T01:12:34;0.30;99.90
39815;DHT22;25495;45.948;4.568;2023-02-10T01:15:00;0.30;99.90
39815;DHT22;25495;45.948;4.568;2023-02-10T01:17:25;0.30;99.90
39815;DHT22;25495;45.948;4.568;2023-02-10T01:19:51;0.40;99.90
39815;DHT22;25495;45.948;4.568;2023-02-10T01:22:17;0.10;99.90
39815;DHT22;25495;45.948;4.568;2023-02-10T01:24:42;0.00;99.90
39815;DHT22;25495;45.948;4.568;2023-02-10T01:27:08;0.00;99.90
39815;DHT22;25495;45.948;4.568;2023-02-10T01:29:33;0.00;99.90
39815;DHT22;25495;45.948;4.568;2023-02-10T01:31:59;0.00;99.90
39815;DHT22;25495;45.948;4.568;2023-02-10T01:34:24;0.00;99.90
39815;DHT22;25495;45.948;4.568;2023-02-10T01:36:51;-0.10;99.90
39815;DHT22;25495;45.948;4.568;2023-02-10T01:39:17;-0.10;99.90
39815;DHT22;25495;45.948;4.568;2023-02-10T01:41:42;-0.10;99.90
39815;DHT22;25495;45.948;4.568;2023-02-10T01:46:46;-0.10;99.90
39815;DHT22;25495;45.948;4.568;2023-02-10T01:49:13;-0.10;99.90
39815;DHT22;25495;45.948;4.568;2023-02-10T01:54:09;0.00;99.90
39815;DHT22;25495;45.948;4.568;2023-02-10T01:56:38;0.10;99.90
39815;DHT22;25495;45.948;4.568;2023-02-10T01:59:04;0.20;99.90
39815;DHT22;25495;45.948;4.568;2023-02-10T02:01:30;0.20;99.90
39815;DHT22;25495;45.948;4.568;2023-02-10T02:03:55;0.30;99.90
39815;DHT22;25495;45.948;4.568;2023-02-10T02:06:21;0.20;99.90
39815;DHT22;25495;45.948;4.568;2023-02-10T02:08:48;-0.10;99.90
39815;DHT22;25495;45.948;4.568;2023-02-10T02:18:39;0.00;99.90
39815;DHT22;25495;45.948;4.568;2023-02-10T02:21:10;0.10;99.90
39815;DHT22;25495;45.948;4.568;2023-02-10T02:23:49;0.10;99.90
39815;DHT22;25495;45.948;4.568;2023-02-10T02:26:30;0.00;99.90
39815;DHT22;25495;45.948;4.568;2023-02-10T02:34:15;-0.20;99.90
39815;DHT22;25495;45.948;4.568;2023-02-10T02:39:34;-0.30;99.90
39815;DHT22;25495;45.948;4.568;2023-02-10T02:44:41;-0.20;99.90
39815;DHT22;25495;45.948;4.568;2023-02-10T02:47:11;-0.40;99.90
39815;DHT22;25495;45.948;4.568;2023-02-10T02:49:45;-0.30;99.90
39815;DHT22;25495;45.948;4.568;2023-02-10T02:52:18;-0.30;99.90
39815;DHT22;25495;45.948;4.568;2023-02-10T02:54:52;-0.30;99.90
39815;DHT22;25495;45.948;4.568;2023-02-10T02:57:33;-0.30;99.90
39815;DHT22;25495;45.948;4.568;2023-02-10T03:00:05;-0.40;99.90
39815;DHT22;25495;45.948;4.568;2023-02-10T03:02:32;-0.40;99.90
39815;DHT22;25495;45.948;4.568;2023-02-10T03:04:58;-0.40;99.90
39815;DHT22;25495;45.948;4.568;2023-02-10T03:07:24;-0.20;99.90
39815;DHT22;25495;45.948;4.568;2023-02-10T03:09:51;-0.10;99.90
39815;DHT22;25495;45.948;4.568;2023-02-10T03:12:17;-0.10;99.90
39815;DHT22;25495;45.948;4.568;2023-02-10T03:14:43;-0.20;99.90
39815;DHT22;25495;45.948;4.568;2023-02-10T03:17:08;-0.10;99.90
39815;DHT22;25495;45.948;4.568;2023-02-10T03:19:34;0.10;99.90
39815;DHT22;25495;45.948;4.568;2023-02-10T03:22:00;0.20;99.90
39815;DHT22;25495;45.948;4.568;2023-02-10T03:24:25;0.30;99.90
39815;DHT22;25495;45.948;4.568;2023-02-10T03:26:51;0.20;99.90
39815;DHT22;25495;45.948;4.568;2023-02-10T03:29:17;-0.30;99.90
39815;DHT22;25495;45.948;4.568;2023-02-10T03:31:42;-0.50;99.90
39815;DHT22;25495;45.948;4.568;2023-02-10T03:34:08;-0.70;99.90
39815;DHT22;25495;45.948;4.568;2023-02-10T03:36:34;-0.60;99.90
39815;DHT22;25495;45.948;4.568;2023-02-10T03:39:03;-0.50;99.90
39815;DHT22;25495;45.948;4.568;2023-02-10T03:41:29;-0.40;99.90
39815;DHT22;25495;45.948;4.568;2023-02-10T03:43:54;-0.40;99.90
39815;DHT22;25495;45.948;4.568;2023-02-10T03:46:20;-0.40;99.90
39815;DHT22;25495;45.948;4.568;2023-02-10T03:48:46;-0.30;99.90
39815;DHT22;25495;45.948;4.568;2023-02-10T03:51:12;-0.40;99.90
39815;DHT22;25495;45.948;4.568;2023-02-10T03:53:37;-0.40;99.90
39815;DHT22;25495;45.948;4.568;2023-02-10T03:56:03;-0.60;99.90
39815;DHT22;25495;45.948;4.568;2023-02-10T03:58:29;-0.50;99.90
39815;DHT22;25495;45.948;4.568;2023-02-10T04:00:54;-0.50;99.90
39815;DHT22;25495;45.948;4.568;2023-02-10T04:03:20;-0.40;99.90
39815;DHT22;25495;45.948;4.568;2023-02-10T04:05:46;-0.30;99.90
39815;DHT22;25495;45.948;4.568;2023-02-10T04:08:11;-0.20;99.90
39815;DHT22;25495;45.948;4.568;2023-02-10T04:10:37;-0.10;99.90
39815;DHT22;25495;45.948;4.568;2023-02-10T04:13:03;-0.10;99.90
39815;DHT22;25495;45.948;4.568;2023-02-10T04:15:28;-0.20;99.90
39815;DHT22;25495;45.948;4.568;2023-02-10T04:17:54;-0.20;99.90
39815;DHT22;25495;45.948;4.568;2023-02-10T04:20:22;-0.10;99.90
39815;DHT22;25495;45.948;4.568;2023-02-10T04:22:48;-0.10;99.90
39815;DHT22;25495;45.948;4.568;2023-02-10T04:25:13;0.00;99.90
39815;DHT22;25495;45.948;4.568;2023-02-10T04:27:39;-0.10;99.90
39815;DHT22;25495;45.948;4.568;2023-02-10T04:30:04;-0.20;99.90
39815;DHT22;25495;45.948;4.568;2023-02-10T04:32:30;-0.20;99.90
39815;DHT22;25495;45.948;4.568;2023-02-10T04:34:56;-0.20;99.90
39815;DHT22;25495;45.948;4.568;2023-02-10T04:37:21;-0.20;99.90
39815;DHT22;25495;45.948;4.568;2023-02-10T04:39:47;-0.30;99.90
39815;DHT22;25495;45.948;4.568;2023-02-10T04:42:13;-0.30;99.90
39815;DHT22;25495;45.948;4.568;2023-02-10T04:44:38;-0.40;99.90
39815;DHT22;25495;45.948;4.568;2023-02-10T04:47:04;-0.50;99.90
39815;DHT22;25495;45.948;4.568;2023-02-10T04:49:29;-0.50;99.90
39815;DHT22;25495;45.948;4.568;2023-02-10T04:51:55;-0.60;99.90
39815;DHT22;25495;45.948;4.568;2023-02-10T04:54:21;-0.60;99.90
39815;DHT22;25495;45.948;4.568;2023-02-10T04:56:46;-0.60;99.90
39815;DHT22;25495;45.948;4.568;2023-02-10T04:59:13;-0.60;99.90
39815;DHT22;25495;45.948;4.568;2023-02-10T05:01:38;-0.60;99.90
39815;DHT22;25495;45.948;4.568;2023-02-10T05:04:04;-0.60;99.90
39815;DHT22;25495;45.948;4.568;2023-02-10T05:06:29;-0.70;99.90
39815;DHT22;25495;45.948;4.568;2023-02-10T05:08:55;-0.90;99.90
39815;DHT22;25495;45.948;4.568;2023-02-10T05:11:20;-0.90;99.90
39815;DHT22;25495;45.948;4.568;2023-02-10T05:13:46;-0.90;99.90
39815;DHT22;25495;45.948;4.568;2023-02-10T05:16:12;-0.90;99.90
39815;DHT22;25495;45.948;4.568;2023-02-10T05:18:38;-0.80;99.90
39815;DHT22;25495;45.948;4.568;2023-02-10T05:21:07;-0.80;99.90
39815;DHT22;25495;45.948;4.568;2023-02-10T05:23:33;-0.70;99.90
39815;DHT22;25495;45.948;4.568;2023-02-10T05:25:59;-0.70;99.90
39815;DHT22;25495;45.948;4.568;2023-02-10T05:28:25;-0.70;99.90
39815;DHT22;25495;45.948;4.568;2023-02-10T05:30:50;-0.80;99.90
39815;DHT22;25495;45.948;4.568;2023-02-10T05:33:16;-0.80;99.90
39815;DHT22;25495;45.948;4.568;2023-02-10T05:35:42;-0.80;99.90
39815;DHT22;25495;45.948;4.568;2023-02-10T05:38:07;-0.80;99.90
39815;DHT22;25495;45.948;4.568;2023-02-10T05:40:33;-0.90;99.90
39815;DHT22;25495;45.948;4.568;2023-02-10T05:42:58;-0.80;99.90
39815;DHT22;25495;45.948;4.568;2023-02-10T05:45:24;-0.70;99.90
39815;DHT22;25495;45.948;4.568;2023-02-10T05:47:50;-0.80;99.90
39815;DHT22;25495;45.948;4.568;2023-02-10T05:50:17;-0.80;99.90
39815;DHT22;25495;45.948;4.568;2023-02-10T05:52:42;-0.90;99.90
39815;DHT22;25495;45.948;4.568;2023-02-10T05:55:08;-0.80;99.90
39815;DHT22;25495;45.948;4.568;2023-02-10T05:57:34;-1.00;99.90
39815;DHT22;25495;45.948;4.568;2023-02-10T05:59:59;-0.90;99.90
39815;DHT22;25495;45.948;4.568;2023-02-10T06:02:25;-0.80;99.90
39815;DHT22;25495;45.948;4.568;2023-02-10T06:04:50;-0.80;99.90
39815;DHT22;25495;45.948;4.568;2023-02-10T06:07:16;-0.80;99.90
39815;DHT22;25495;45.948;4.568;2023-02-10T06:09:42;-0.80;99.90
39815;DHT22;25495;45.948;4.568;2023-02-10T06:12:08;-0.70;99.90
39815;DHT22;25495;45.948;4.568;2023-02-10T06:14:34;-0.90;99.90
39815;DHT22;25495;45.948;4.568;2023-02-10T06:17:00;-1.10;99.90
39815;DHT22;25495;45.948;4.568;2023-02-10T06:19:26;-1.10;99.90
39815;DHT22;25495;45.948;4.568;2023-02-10T06:21:54;-1.20;99.90
39815;DHT22;25495;45.948;4.568;2023-02-10T06:24:19;-1.10;99.90
39815;DHT22;25495;45.948;4.568;2023-02-10T06:26:45;-1.00;99.90
39815;DHT22;25495;45.948;4.568;2023-02-10T06:29:10;-0.90;99.90
39815;DHT22;25495;45.948;4.568;2023-02-10T06:31:36;-0.90;99.90
39815;DHT22;25495;45.948;4.568;2023-02-10T06:34:01;-0.90;99.90
39815;DHT22;25495;45.948;4.568;2023-02-10T06:36:27;-0.90;99.90
39815;DHT22;25495;45.948;4.568;2023-02-10T06:38:53;-0.90;99.90
39815;DHT22;25495;45.948;4.568;2023-02-10T06:41:18;-1.10;99.90
39815;DHT22;25495;45.948;4.568;2023-02-10T06:43:44;-1.00;99.90
39815;DHT22;25495;45.948;4.568;2023-02-10T06:46:10;-1.00;99.90
39815;DHT22;25495;45.948;4.568;2023-02-10T06:48:38;-0.90;99.90
39815;DHT22;25495;45.948;4.568;2023-02-10T06:51:03;-0.90;99.90
39815;DHT22;25495;45.948;4.568;2023-02-10T06:53:29;-1.00;99.90
39815;DHT22;25495;45.948;4.568;2023-02-10T06:55:55;-1.00;99.90
39815;DHT22;25495;45.948;4.568;2023-02-10T06:58:21;-1.00;99.90
39815;DHT22;25495;45.948;4.568;2023-02-10T07:00:47;-1.00;99.90
39815;DHT22;25495;45.948;4.568;2023-02-10T07:03:13;-1.00;99.90
39815;DHT22;25495;45.948;4.568;2023-02-10T07:05:39;-0.90;99.90
39815;DHT22;25495;45.948;4.568;2023-02-10T07:08:06;-0.90;99.90
39815;DHT22;25495;45.948;4.568;2023-02-10T07:10:31;-1.00;99.90
39815;DHT22;25495;45.948;4.568;2023-02-10T07:12:57;-1.00;99.90
39815;DHT22;25495;45.948;4.568;2023-02-10T07:15:23;-0.90;99.90
39815;DHT22;25495;45.948;4.568;2023-02-10T07:17:49;-1.00;99.90
39815;DHT22;25495;45.948;4.568;2023-02-10T07:20:16;-1.00;99.90
39815;DHT22;25495;45.948;4.568;2023-02-10T07:22:42;-1.10;99.90
39815;DHT22;25495;45.948;4.568;2023-02-10T07:25:07;-1.00;99.90
39815;DHT22;25495;45.948;4.568;2023-02-10T07:27:33;-0.80;99.90
39815;DHT22;25495;45.948;4.568;2023-02-10T07:29:58;-0.70;99.90
39815;DHT22;25495;45.948;4.568;2023-02-10T07:32:24;-0.60;99.90
39815;DHT22;25495;45.948;4.568;2023-02-10T07:34:49;-0.40;99.90
39815;DHT22;25495;45.948;4.568;2023-02-10T07:37:16;-0.30;99.90
39815;DHT22;25495;45.948;4.568;2023-02-10T07:39:42;-0.20;99.90
39815;DHT22;25495;45.948;4.568;2023-02-10T07:42:08;-0.10;99.90
39815;DHT22;25495;45.948;4.568;2023-02-10T07:44:33;0.10;99.90
39815;DHT22;25495;45.948;4.568;2023-02-10T07:46:59;0.10;99.90
39815;DHT22;25495;45.948;4.568;2023-02-10T07:49:25;0.50;99.90
39815;DHT22;25495;45.948;4.568;2023-02-10T07:51:52;0.60;99.90
39815;DHT22;25495;45.948;4.568;2023-02-10T07:54:17;0.70;99.90
39815;DHT22;25495;45.948;4.568;2023-02-10T07:56:43;1.00;99.90
39815;DHT22;25495;45.948;4.568;2023-02-10T07:59:08;1.30;99.90
39815;DHT22;25495;45.948;4.568;2023-02-10T08:01:34;1.30;99.90
39815;DHT22;25495;45.948;4.568;2023-02-10T08:04:05;1.30;99.90
39815;DHT22;25495;45.948;4.568;2023-02-10T08:06:31;1.50;99.90
39815;DHT22;25495;45.948;4.568;2023-02-10T08:08:57;1.80;99.90
39815;DHT22;25495;45.948;4.568;2023-02-10T08:11:22;1.80;99.90
39815;DHT22;25495;45.948;4.568;2023-02-10T08:13:48;1.50;99.90
39815;DHT22;25495;45.948;4.568;2023-02-10T08:16:14;1.50;99.90
39815;DHT22;25495;45.948;4.568;2023-02-10T08:18:40;1.60;99.90
39815;DHT22;25495;45.948;4.568;2023-02-10T08:21:06;1.60;99.90
39815;DHT22;25495;45.948;4.568;2023-02-10T08:23:32;2.10;99.90
39815;DHT22;25495;45.948;4.568;2023-02-10T08:25:58;2.50;99.90
39815;DHT22;25495;45.948;4.568;2023-02-10T08:28:24;2.60;99.90
39815;DHT22;25495;45.948;4.568;2023-02-10T08:30:49;2.30;99.90
39815;DHT22;25495;45.948;4.568;2023-02-10T08:33:15;2.40;99.90
39815;DHT22;25495;45.948;4.568;2023-02-10T08:35:41;2.30;99.90
39815;DHT22;25495;45.948;4.568;2023-02-10T08:38:06;2.30;99.90
39815;DHT22;25495;45.948;4.568;2023-02-10T08:40:34;3.00;99.90
39815;DHT22;25495;45.948;4.568;2023-02-10T08:43:00;3.10;99.90
39815;DHT22;25495;45.948;4.568;2023-02-10T08:45:26;3.00;99.90
39815;DHT22;25495;45.948;4.568;2023-02-10T08:47:51;3.20;99.90
39815;DHT22;25495;45.948;4.568;2023-02-10T08:50:17;3.30;99.90
39815;DHT22;25495;45.948;4.568;2023-02-10T08:52:42;3.30;99.90
39815;DHT22;25495;45.948;4.568;2023-02-10T08:55:08;3.70;99.90
39815;DHT22;25495;45.948;4.568;2023-02-10T08:57:36;3.80;99.90
39815;DHT22;25495;45.948;4.568;2023-02-10T09:00:03;4.30;99.90
39815;DHT22;25495;45.948;4.568;2023-02-10T09:02:29;4.60;99.90
39815;DHT22;25495;45.948;4.568;2023-02-10T09:04:55;4.80;99.90
39815;DHT22;25495;45.948;4.568;2023-02-10T09:07:20;4.70;99.90
39815;DHT22;25495;45.948;4.568;2023-02-10T09:09:46;4.70;99.90
39815;DHT22;25495;45.948;4.568;2023-02-10T09:12:11;4.70;99.90
39815;DHT22;25495;45.948;4.568;2023-02-10T09:14:40;5.10;99.90
39815;DHT22;25495;45.948;4.568;2023-02-10T09:17:06;5.30;99.90
39815;DHT22;25495;45.948;4.568;2023-02-10T09:22:00;5.50;99.90
39815;DHT22;25495;45.948;4.568;2023-02-10T09:24:26;4.90;99.90
39815;DHT22;25495;45.948;4.568;2023-02-10T09:26:52;4.80;99.90
39815;DHT22;25495;45.948;4.568;2023-02-10T09:29:18;5.40;99.90
39815;DHT22;25495;45.948;4.568;2023-02-10T09:31:44;5.40;99.90
39815;DHT22;25495;45.948;4.568;2023-02-10T09:34:10;5.70;99.90
39815;DHT22;25495;45.948;4.568;2023-02-10T09:39:02;6.00;99.90
39815;DHT22;25495;45.948;4.568;2023-02-10T09:44:11;5.70;99.90
39815;DHT22;25495;45.948;4.568;2023-02-10T09:51:56;6.10;99.90
39815;DHT22;25495;45.948;4.568;2023-02-10T09:54:23;6.40;99.90
39815;DHT22;25495;45.948;4.568;2023-02-10T09:56:49;6.40;99.90
39815;DHT22;25495;45.948;4.568;2023-02-10T09:59:16;6.60;99.90
39815;DHT22;25495;45.948;4.568;2023-02-10T10:01:44;6.00;98.10
39815;DHT22;25495;45.948;4.568;2023-02-10T10:04:15;5.60;98.80
39815;DHT22;25495;45.948;4.568;2023-02-10T10:06:45;5.90;99.20
39815;DHT22;25495;45.948;4.568;2023-02-10T10:11:51;6.40;98.60
39815;DHT22;25495;45.948;4.568;2023-02-10T10:14:18;6.50;98.00
39815;DHT22;25495;45.948;4.568;2023-02-10T10:19:18;6.40;97.40
39815;DHT22;25495;45.948;4.568;2023-02-10T10:21:50;6.70;96.40
39815;DHT22;25495;45.948;4.568;2023-02-10T10:29:35;7.00;97.60
39815;DHT22;25495;45.948;4.568;2023-02-10T10:34:39;7.50;97.00
39815;DHT22;25495;45.948;4.568;2023-02-10T10:37:11;7.80;97.20
39815;DHT22;25495;45.948;4.568;2023-02-10T10:39:38;7.90;95.70
39815;DHT22;25495;45.948;4.568;2023-02-10T10:44:50;7.50;96.20
39815;DHT22;25495;45.948;4.568;2023-02-10T10:47:25;7.60;95.80
39815;DHT22;25495;45.948;4.568;2023-02-10T10:49:53;7.30;96.00
39815;DHT22;25495;45.948;4.568;2023-02-10T10:54:45;7.50;95.90
39815;DHT22;25495;45.948;4.568;2023-02-10T10:57:10;7.10;96.40
39815;DHT22;25495;45.948;4.568;2023-02-10T10:59:40;6.90;97.30
39815;DHT22;25495;45.948;4.568;2023-02-10T11:02:11;6.90;96.70
39815;DHT22;25495;45.948;4.568;2023-02-10T11:04:37;6.90;97.70
39815;DHT22;25495;45.948;4.568;2023-02-10T11:07:08;7.30;96.80
39815;DHT22;25495;45.948;4.568;2023-02-10T11:09:36;7.10;96.50
39815;DHT22;25495;45.948;4.568;2023-02-10T11:12:04;6.70;96.70
39815;DHT22;25495;45.948;4.568;2023-02-10T11:14:36;6.60;96.40
39815;DHT22;25495;45.948;4.568;2023-02-10T11:17:02;6.70;96.40
39815;DHT22;25495;45.948;4.568;2023-02-10T11:19:31;6.70;96.90
39815;DHT22;25495;45.948;4.568;2023-02-10T11:21:58;6.80;97.20
39815;DHT22;25495;45.948;4.568;2023-02-10T11:24:28;6.20;96.00
39815;DHT22;25495;45.948;4.568;2023-02-10T11:29:19;6.90;96.80
39815;DHT22;25495;45.948;4.568;2023-02-10T11:31:45;7.00;96.90
39815;DHT22;25495;45.948;4.568;2023-02-10T11:34:17;6.90;96.40
39815;DHT22;25495;45.948;4.568;2023-02-10T11:36:45;6.60;96.20
39815;DHT22;25495;45.948;4.568;2023-02-10T11:39:19;6.70;97.20
39815;DHT22;25495;45.948;4.568;2023-02-10T11:41:46;6.70;97.00
39815;DHT22;25495;45.948;4.568;2023-02-10T11:44:21;6.80;97.00
39815;DHT22;25495;45.948;4.568;2023-02-10T11:46:54;6.80;97.00
39815;DHT22;25495;45.948;4.568;2023-02-10T11:49:19;6.20;96.80
39815;DHT22;25495;45.948;4.568;2023-02-10T11:51:52;6.40;96.70
39815;DHT22;25495;45.948;4.568;2023-02-10T11:54:18;6.40;96.50
39815;DHT22;25495;45.948;4.568;2023-02-10T12:02:31;6.20;97.70
39815;DHT22;25495;45.948;4.568;2023-02-10T12:09:59;6.70;97.60
39815;DHT22;25495;45.948;4.568;2023-02-10T12:28:15;6.70;97.50
39815;DHT22;25495;45.948;4.568;2023-02-10T12:41:05;6.00;97.10
39815;DHT22;25495;45.948;4.568;2023-02-10T12:46:11;5.80;96.40
39815;DHT22;25495;45.948;4.568;2023-02-10T12:48:44;6.10;96.80
39815;DHT22;25495;45.948;4.568;2023-02-10T12:52:13;6.50;96.80
39815;DHT22;25495;45.948;4.568;2023-02-10T12:54:23;6.50;96.90
39815;DHT22;25495;45.948;4.568;2023-02-10T12:56:53;6.50;96.60
39815;DHT22;25495;45.948;4.568;2023-02-10T12:59:23;6.90;97.70
39815;DHT22;25495;45.948;4.568;2023-02-10T13:01:58;6.90;96.60
39815;DHT22;25495;45.948;4.568;2023-02-10T13:04:26;6.90;96.90
39815;DHT22;25495;45.948;4.568;2023-02-10T13:06:56;6.50;95.90
39815;DHT22;25495;45.948;4.568;2023-02-10T13:09:26;6.30;96.40
39815;DHT22;25495;45.948;4.568;2023-02-10T13:12:02;6.70;96.50
39815;DHT22;25495;45.948;4.568;2023-02-10T13:14:29;6.70;96.00
39815;DHT22;25495;45.948;4.568;2023-02-10T13:16:57;6.10;95.90
39815;DHT22;25495;45.948;4.568;2023-02-10T13:21:53;5.90;96.60
39815;DHT22;25495;45.948;4.568;2023-02-10T13:29:40;6.00;97.10
39815;DHT22;25495;45.948;4.568;2023-02-10T13:34:45;5.60;97.60
39815;DHT22;25495;45.948;4.568;2023-02-10T13:39:58;6.00;96.90
39815;DHT22;25495;45.948;4.568;2023-02-10T13:42:29;5.90;97.10
39815;DHT22;25495;45.948;4.568;2023-02-10T13:47:36;6.10;97.10
39815;DHT22;25495;45.948;4.568;2023-02-10T13:50:25;6.20;97.30
39815;DHT22;25495;45.948;4.568;2023-02-10T13:52:50;6.30;97.10
39815;DHT22;25495;45.948;4.568;2023-02-10T13:57:52;6.20;96.90
39815;DHT22;25495;45.948;4.568;2023-02-10T14:00:19;6.50;97.90
39815;DHT22;25495;45.948;4.568;2023-02-10T14:03:17;6.10;96.90
39815;DHT22;25495;45.948;4.568;2023-02-10T14:05:52;5.90;97.30
39815;DHT22;25495;45.948;4.568;2023-02-10T14:26:46;5.70;97.40
39815;DHT22;25495;45.948;4.568;2023-02-10T14:29:16;5.80;97.60
39815;DHT22;25495;45.948;4.568;2023-02-10T14:31:52;5.80;98.20
39815;DHT22;25495;45.948;4.568;2023-02-10T14:34:23;5.70;98.10
39815;DHT22;25495;45.948;4.568;2023-02-10T14:36:58;5.70;98.50
39815;DHT22;25495;45.948;4.568;2023-02-10T14:39:27;5.80;98.10
39815;DHT22;25495;45.948;4.568;2023-02-10T14:42:00;5.80;98.10
39815;DHT22;25495;45.948;4.568;2023-02-10T14:47:01;5.70;98.60
39815;DHT22;25495;45.948;4.568;2023-02-10T14:49:27;5.70;98.10
39815;DHT22;25495;45.948;4.568;2023-02-10T14:51:56;5.80;98.50
39815;DHT22;25495;45.948;4.568;2023-02-10T14:54:26;6.00;99.30
39815;DHT22;25495;45.948;4.568;2023-02-10T14:56:59;5.90;98.50
39815;DHT22;25495;45.948;4.568;2023-02-10T14:59:28;6.00;98.10
39815;DHT22;25495;45.948;4.568;2023-02-10T15:01:57;6.00;98.30
39815;DHT22;25495;45.948;4.568;2023-02-10T15:04:24;6.00;98.20
39815;DHT22;25495;45.948;4.568;2023-02-10T15:06:56;6.10;98.20
39815;DHT22;25495;45.948;4.568;2023-02-10T15:09:35;6.10;97.90
39815;DHT22;25495;45.948;4.568;2023-02-10T15:12:07;6.00;98.20
39815;DHT22;25495;45.948;4.568;2023-02-10T15:17:25;6.00;98.30
39815;DHT22;25495;45.948;4.568;2023-02-10T15:20:00;6.00;98.30
39815;DHT22;25495;45.948;4.568;2023-02-10T15:23:01;6.10;98.50
39815;DHT22;25495;45.948;4.568;2023-02-10T15:25:36;6.00;98.40
39815;DHT22;25495;45.948;4.568;2023-02-10T15:30:57;5.50;98.40
39815;DHT22;25495;45.948;4.568;2023-02-10T15:33:58;5.40;98.80
39815;DHT22;25495;45.948;4.568;2023-02-10T15:36:33;5.40;98.70
39815;DHT22;25495;45.948;4.568;2023-02-10T15:39:04;5.50;98.70
39815;DHT22;25495;45.948;4.568;2023-02-10T15:44:03;5.30;98.60
39815;DHT22;25495;45.948;4.568;2023-02-10T15:46:31;5.30;98.70
39815;DHT22;25495;45.948;4.568;2023-02-10T15:49:11;5.20;98.70
39815;DHT22;25495;45.948;4.568;2023-02-10T15:51:41;5.20;98.60
39815;DHT22;25495;45.948;4.568;2023-02-10T15:54:15;5.20;98.60
39815;DHT22;25495;45.948;4.568;2023-02-10T15:57:03;5.20;98.70
39815;DHT22;25495;45.948;4.568;2023-02-10T15:59:32;5.10;98.90
39815;DHT22;25495;45.948;4.568;2023-02-10T16:02:02;4.90;99.10
39815;DHT22;25495;45.948;4.568;2023-02-10T16:04:32;4.80;99.10
39815;DHT22;25495;45.948;4.568;2023-02-10T16:07:01;4.70;99.10
39815;DHT22;25495;45.948;4.568;2023-02-10T16:09:28;4.60;99.40
39815;DHT22;25495;45.948;4.568;2023-02-10T16:11:56;4.50;99.30
39815;DHT22;25495;45.948;4.568;2023-02-10T16:14:22;4.50;99.40
39815;DHT22;25495;45.948;4.568;2023-02-10T16:19:56;4.40;99.50
39815;DHT22;25495;45.948;4.568;2023-02-10T16:22:23;4.30;99.50
39815;DHT22;25495;45.948;4.568;2023-02-10T16:24:55;4.20;99.80
39815;DHT22;25495;45.948;4.568;2023-02-10T16:27:24;4.20;99.70
39815;DHT22;25495;45.948;4.568;2023-02-10T16:29:51;4.10;99.90
39815;DHT22;25495;45.948;4.568;2023-02-10T16:32:23;4.00;99.90
39815;DHT22;25495;45.948;4.568;2023-02-10T16:34:54;3.90;99.90
39815;DHT22;25495;45.948;4.568;2023-02-10T16:37:21;3.90;99.90
39815;DHT22;25495;45.948;4.568;2023-02-10T16:39:49;3.80;99.90
39815;DHT22;25495;45.948;4.568;2023-02-10T16:42:15;3.80;99.90
39815;DHT22;25495;45.948;4.568;2023-02-10T16:44:41;3.80;99.90
39815;DHT22;25495;45.948;4.568;2023-02-10T16:47:18;3.80;99.90
39815;DHT22;25495;45.948;4.568;2023-02-10T16:49:53;3.70;99.90
39815;DHT22;25495;45.948;4.568;2023-02-10T16:52:19;3.60;99.90
39815;DHT22;25495;45.948;4.568;2023-02-10T16:54:50;3.50;99.90
39815;DHT22;25495;45.948;4.568;2023-02-10T16:57:19;3.40;99.90
39815;DHT22;25495;45.948;4.568;2023-02-10T16:59:54;3.40;99.90
39815;DHT22;25495;45.948;4.568;2023-02-10T17:02:22;3.40;99.90
39815;DHT22;25495;45.948;4.568;2023-02-10T17:04:50;3.30;99.90
39815;DHT22;25495;45.948;4.568;2023-02-10T17:07:19;3.20;99.90
39815;DHT22;25495;45.948;4.568;2023-02-10T17:09:46;3.10;99.90
39815;DHT22;25495;45.948;4.568;2023-02-10T17:12:23;3.00;99.90
39815;DHT22;25495;45.948;4.568;2023-02-10T17:14:50;2.80;99.90
39815;DHT22;25495;45.948;4.568;2023-02-10T17:17:17;2.70;99.90
39815;DHT22;25495;45.948;4.568;2023-02-10T17:19:49;2.50;99.90
39815;DHT22;25495;45.948;4.568;2023-02-10T17:22:16;2.50;99.90
39815;DHT22;25495;45.948;4.568;2023-02-10T17:24:42;2.40;99.90
39815;DHT22;25495;45.948;4.568;2023-02-10T17:27:13;2.30;99.90
39815;DHT22;25495;45.948;4.568;2023-02-10T17:29:41;2.30;99.90
39815;DHT22;25495;45.948;4.568;2023-02-10T17:32:11;2.40;99.90
39815;DHT22;25495;45.948;4.568;2023-02-10T17:34:37;2.40;99.90
39815;DHT22;25495;45.948;4.568;2023-02-10T17:37:06;2.30;99.90
39815;DHT22;25495;45.948;4.568;2023-02-10T17:39:38;2.40;99.90
39815;DHT22;25495;45.948;4.568;2023-02-10T17:42:04;2.30;99.90
39815;DHT22;25495;45.948;4.568;2023-02-10T17:44:32;2.20;99.90
39815;DHT22;25495;45.948;4.568;2023-02-10T17:47:00;2.10;99.90
39815;DHT22;25495;45.948;4.568;2023-02-10T17:49:29;2.00;99.90
39815;DHT22;25495;45.948;4.568;2023-02-10T17:51:57;2.00;99.90
39815;DHT22;25495;45.948;4.568;2023-02-10T17:54:26;1.90;99.90
39815;DHT22;25495;45.948;4.568;2023-02-10T17:56:53;1.90;99.90
39815;DHT22;25495;45.948;4.568;2023-02-10T17:59:20;1.80;99.90
39815;DHT22;25495;45.948;4.568;2023-02-10T18:01:47;1.70;99.90
39815;DHT22;25495;45.948;4.568;2023-02-10T18:04:15;1.80;99.90
39815;DHT22;25495;45.948;4.568;2023-02-10T18:06:43;1.70;99.90
39815;DHT22;25495;45.948;4.568;2023-02-10T18:09:14;1.70;99.90
39815;DHT22;25495;45.948;4.568;2023-02-10T18:11:44;1.60;99.90